Impacts METAR Board
IDs:

KFLL - Ft Lauderdale-Hollyw, FL, US

Updated at: 2200 UTC 19 Jan 2019
Potential Impact None Slight Moderate High
Time 19/10Z 19/11Z 19/12Z 19/13Z 19/14Z 19/15Z 19/16Z 19/17Z 19/18Z 19/19Z 19/20Z 19/21Z 19/22Z
Temp63 64 62 66 73 74 77 77 77 77 77 76 75
Dewpt62 62 61 64 64 64 62 64 62 61 61 61 61
Altim30.05 30.06 30.06 30.06 30.06 30.07 30.08 30.06 30.02 30.01 29.99 29.98 29.96
VIS10 10 10 10 10 10 10 10 10 10 10 10 10
CIG-- -- -- 37 -- -- -- -- -- -- -- -- --
CoverFEWSCTSCTBKNFEWFEWFEWFEWSCTFEWCLRCLRCLR
FltCatVFRVFRVFRVFRVFRVFRVFRVFRVFRVFRVFRVFRVFR
WX--------------------------
WDir003200150150150160160140150160160
WSpd0 0 3 0 10 13 11 11 12 13 14 12 13
WGst-- -- -- -- -- -- -- -- 21 17 -- -- --
Raw hourly METARs
KFLL 190953Z AUTO 00000KT 10SM FEW032 17/17 A3005 RMK AO2 SLP174 T01720167
KFLL 191053Z AUTO 00000KT 10SM SCT032 SCT040 18/17 A3006 RMK AO2 SLP180 T01780167
KFLL 191153Z AUTO 32003KT 10SM FEW032 SCT042 17/16 A3006 RMK AO2 SLP178 T01670161 10183 20167 53001
KFLL 191253Z AUTO 00000KT 10SM SCT030 BKN037 BKN046 19/18 A3006 RMK AO2 SLP179 T01890178
KFLL 191353Z AUTO 15010KT 10SM FEW032 23/18 A3006 RMK AO2 SLP179 T02280178
KFLL 191453Z AUTO 15013KT 10SM FEW033 23/18 A3007 RMK AO2 SLP183 T02330178 53005
KFLL 191553Z AUTO 15011KT 10SM FEW037 25/17 A3008 RMK AO2 SLP187 T02500167
KFLL 191653Z AUTO 16011KT 10SM FEW035 25/18 A3006 RMK AO2 SLP179 T02500178
KFLL 191753Z AUTO 16012G21KT 10SM SCT038 25/17 A3002 RMK AO2 SLP165 T02500167 10256 20167 58018
KFLL 191853Z AUTO 14013G17KT 10SM FEW042 25/16 A3001 RMK AO2 SLP161 T02500161
KFLL 191953Z AUTO 15014KT 10SM CLR 25/16 A2999 RMK AO2 SLP154 T02500161
KFLL 192053Z AUTO 16012KT 10SM CLR 24/16 A2998 RMK AO2 SLP150 T02440161 56015
KFLL 192153Z AUTO 16013KT 10SM CLR 24/16 A2996 RMK AO2 SLP146 T02390161



Page loaded:  22:41 UTC  |   02:41 PM Pacific  |   03:41 PM Mountain  |   04:41 PM Central  |   05:41 PM Eastern

 

ADVISORIES

FORECASTS

FORECASTS

OBSERVATIONS

USER TOOLS

ABOUT US